sensor_id;sensor_type;location;lat;lon;timestamp;temperature;humidity
2174;DHT22;1093;51.424;11.764;2024-03-23T00:52:49;9.80;1.40
2174;DHT22;1093;51.424;11.764;2024-03-23T00:55:14;9.80;1.40
2174;DHT22;1093;51.424;11.764;2024-03-23T00:57:41;9.80;1.40
2174;DHT22;1093;51.424;11.764;2024-03-23T01:00:07;9.80;1.40
2174;DHT22;1093;51.424;11.764;2024-03-23T01:02:36;9.80;1.40
2174;DHT22;1093;51.424;11.764;2024-03-23T01:05:02;9.80;1.40
2174;DHT22;1093;51.424;11.764;2024-03-23T01:07:29;9.70;1.40
2174;DHT22;1093;51.424;11.764;2024-03-23T01:09:57;9.70;1.40
2174;DHT22;1093;51.424;11.764;2024-03-23T01:12:24;9.70;1.40
2174;DHT22;1093;51.424;11.764;2024-03-23T01:14:50;9.70;1.40
2174;DHT22;1093;51.424;11.764;2024-03-23T01:17:17;9.60;1.40
2174;DHT22;1093;51.424;11.764;2024-03-23T01:19:42;9.60;1.40
2174;DHT22;1093;51.424;11.764;2024-03-23T01:22:09;9.60;1.40
2174;DHT22;1093;51.424;11.764;2024-03-23T01:24:35;9.50;1.40
2174;DHT22;1093;51.424;11.764;2024-03-23T01:27:04;9.50;1.40
2174;DHT22;1093;51.424;11.764;2024-03-23T01:29:30;9.50;1.40
2174;DHT22;1093;51.424;11.764;2024-03-23T01:31:56;9.50;1.40
2174;DHT22;1093;51.424;11.764;2024-03-23T01:34:22;9.50;1.40
2174;DHT22;1093;51.424;11.764;2024-03-23T01:36:50;9.50;1.40
2174;DHT22;1093;51.424;11.764;2024-03-23T01:39:16;9.50;1.40
2174;DHT22;1093;51.424;11.764;2024-03-23T01:41:43;9.40;1.40
2174;DHT22;1093;51.424;11.764;2024-03-23T01:44:10;9.40;1.40
2174;DHT22;1093;51.424;11.764;2024-03-23T01:46:38;9.40;1.40
2174;DHT22;1093;51.424;11.764;2024-03-23T01:49:05;9.40;1.40
2174;DHT22;1093;51.424;11.764;2024-03-23T01:51:32;9.40;1.40
2174;DHT22;1093;51.424;11.764;2024-03-23T01:53:59;9.40;1.40
2174;DHT22;1093;51.424;11.764;2024-03-23T01:56:28;9.40;1.40
2174;DHT22;1093;51.424;11.764;2024-03-23T01:58:54;9.40;1.40
2174;DHT22;1093;51.424;11.764;2024-03-23T02:01:22;9.30;1.40
2174;DHT22;1093;51.424;11.764;2024-03-23T02:03:48;9.40;1.40
2174;DHT22;1093;51.424;11.764;2024-03-23T02:06:15;9.40;1.40
2174;DHT22;1093;51.424;11.764;2024-03-23T02:08:41;9.40;1.40
2174;DHT22;1093;51.424;11.764;2024-03-23T02:11:08;9.40;1.40
2174;DHT22;1093;51.424;11.764;2024-03-23T02:13:33;9.30;1.40
2174;DHT22;1093;51.424;11.764;2024-03-23T02:16:00;9.30;1.40
2174;DHT22;1093;51.424;11.764;2024-03-23T02:18:28;9.30;1.40
2174;DHT22;1093;51.424;11.764;2024-03-23T02:20:54;9.30;1.40
2174;DHT22;1093;51.424;11.764;2024-03-23T02:23:22;9.30;1.40
2174;DHT22;1093;51.424;11.764;2024-03-23T02:25:50;9.30;1.40
2174;DHT22;1093;51.424;11.764;2024-03-23T02:28:18;9.20;1.40
2174;DHT22;1093;51.424;11.764;2024-03-23T02:30:45;9.20;1.40
2174;DHT22;1093;51.424;11.764;2024-03-23T02:33:11;9.20;1.40
2174;DHT22;1093;51.424;11.764;2024-03-23T02:35:38;9.20;1.40
2174;DHT22;1093;51.424;11.764;2024-03-23T02:38:04;9.20;1.40
2174;DHT22;1093;51.424;11.764;2024-03-23T02:40:32;9.20;1.40
2174;DHT22;1093;51.424;11.764;2024-03-23T02:42:58;9.20;1.40
2174;DHT22;1093;51.424;11.764;2024-03-23T02:45:25;9.10;1.40
2174;DHT22;1093;51.424;11.764;2024-03-23T02:47:51;9.10;1.40
2174;DHT22;1093;51.424;11.764;2024-03-23T02:50:18;9.20;1.40
2174;DHT22;1093;51.424;11.764;2024-03-23T02:52:44;9.20;1.40
2174;DHT22;1093;51.424;11.764;2024-03-23T02:55:11;9.20;1.40
2174;DHT22;1093;51.424;11.764;2024-03-23T02:57:38;9.10;1.40
2174;DHT22;1093;51.424;11.764;2024-03-23T03:00:06;9.10;1.40
2174;DHT22;1093;51.424;11.764;2024-03-23T03:02:32;9.10;1.40
2174;DHT22;1093;51.424;11.764;2024-03-23T03:04:59;9.10;1.40
2174;DHT22;1093;51.424;11.764;2024-03-23T03:07:25;9.00;1.40
2174;DHT22;1093;51.424;11.764;2024-03-23T03:09:52;9.10;1.40
2174;DHT22;1093;51.424;11.764;2024-03-23T03:12:17;9.00;1.40
2174;DHT22;1093;51.424;11.764;2024-03-23T03:14:46;9.00;1.40
2174;DHT22;1093;51.424;11.764;2024-03-23T03:17:11;9.10;1.40
2174;DHT22;1093;51.424;11.764;2024-03-23T03:19:38;9.00;1.40
2174;DHT22;1093;51.424;11.764;2024-03-23T03:22:04;9.00;1.40
2174;DHT22;1093;51.424;11.764;2024-03-23T03:24:32;9.00;1.40
2174;DHT22;1093;51.424;11.764;2024-03-23T03:26:58;9.00;1.40
2174;DHT22;1093;51.424;11.764;2024-03-23T03:29:25;9.10;1.40
2174;DHT22;1093;51.424;11.764;2024-03-23T03:31:52;9.00;1.40
2174;DHT22;1093;51.424;11.764;2024-03-23T03:34:19;9.10;1.40
2174;DHT22;1093;51.424;11.764;2024-03-23T03:36:45;9.00;1.40
2174;DHT22;1093;51.424;11.764;2024-03-23T03:39:12;9.00;1.40
2174;DHT22;1093;51.424;11.764;2024-03-23T03:41:38;9.00;1.40
2174;DHT22;1093;51.424;11.764;2024-03-23T03:44:05;9.00;1.40
2174;DHT22;1093;51.424;11.764;2024-03-23T03:46:31;9.00;1.40
2174;DHT22;1093;51.424;11.764;2024-03-23T03:48:59;9.00;1.40
2174;DHT22;1093;51.424;11.764;2024-03-23T03:51:24;8.90;1.40
2174;DHT22;1093;51.424;11.764;2024-03-23T03:53:51;9.00;1.40
2174;DHT22;1093;51.424;11.764;2024-03-23T03:56:17;9.00;1.40
2174;DHT22;1093;51.424;11.764;2024-03-23T03:58:44;9.00;1.40
2174;DHT22;1093;51.424;11.764;2024-03-23T04:01:10;9.00;1.40
2174;DHT22;1093;51.424;11.764;2024-03-23T04:03:36;8.90;1.40
2174;DHT22;1093;51.424;11.764;2024-03-23T04:06:04;9.00;1.40
2174;DHT22;1093;51.424;11.764;2024-03-23T04:08:31;8.90;1.40
2174;DHT22;1093;51.424;11.764;2024-03-23T04:10:57;9.00;1.40
2174;DHT22;1093;51.424;11.764;2024-03-23T04:13:24;9.00;1.40
2174;DHT22;1093;51.424;11.764;2024-03-23T04:15:54;8.90;1.40
2174;DHT22;1093;51.424;11.764;2024-03-23T04:18:20;9.00;1.40
2174;DHT22;1093;51.424;11.764;2024-03-23T04:20:46;9.00;1.40
2174;DHT22;1093;51.424;11.764;2024-03-23T04:23:15;9.00;1.40
2174;DHT22;1093;51.424;11.764;2024-03-23T04:25:41;9.00;1.40
2174;DHT22;1093;51.424;11.764;2024-03-23T04:28:07;8.90;1.40
2174;DHT22;1093;51.424;11.764;2024-03-23T04:30:33;8.90;1.40
2174;DHT22;1093;51.424;11.764;2024-03-23T04:33:00;8.90;1.40
2174;DHT22;1093;51.424;11.764;2024-03-23T04:35:27;9.00;1.40
2174;DHT22;1093;51.424;11.764;2024-03-23T04:37:54;9.00;1.40
2174;DHT22;1093;51.424;11.764;2024-03-23T04:40:26;8.90;1.40
2174;DHT22;1093;51.424;11.764;2024-03-23T04:42:52;9.00;1.40
2174;DHT22;1093;51.424;11.764;2024-03-23T04:45:19;8.90;1.40
2174;DHT22;1093;51.424;11.764;2024-03-23T04:47:46;8.90;1.40
2174;DHT22;1093;51.424;11.764;2024-03-23T04:50:13;8.90;1.40
2174;DHT22;1093;51.424;11.764;2024-03-23T04:52:40;8.90;1.40
2174;DHT22;1093;51.424;11.764;2024-03-23T04:55:07;8.90;1.40
2174;DHT22;1093;51.424;11.764;2024-03-23T04:57:35;8.90;1.40
2174;DHT22;1093;51.424;11.764;2024-03-23T05:00:01;8.90;1.40
2174;DHT22;1093;51.424;11.764;2024-03-23T05:02:30;8.90;1.40
2174;DHT22;1093;51.424;11.764;2024-03-23T05:04:57;8.80;1.40
2174;DHT22;1093;51.424;11.764;2024-03-23T05:07:23;8.80;1.40
2174;DHT22;1093;51.424;11.764;2024-03-23T05:09:50;8.80;1.40
2174;DHT22;1093;51.424;11.764;2024-03-23T05:12:16;8.80;1.40
2174;DHT22;1093;51.424;11.764;2024-03-23T05:14:44;8.80;1.40
2174;DHT22;1093;51.424;11.764;2024-03-23T05:17:10;8.80;1.40
2174;DHT22;1093;51.424;11.764;2024-03-23T05:19:37;8.70;1.40
2174;DHT22;1093;51.424;11.764;2024-03-23T05:22:03;8.70;1.40
2174;DHT22;1093;51.424;11.764;2024-03-23T05:24:30;8.70;1.40
2174;DHT22;1093;51.424;11.764;2024-03-23T05:26:56;8.70;1.40
2174;DHT22;1093;51.424;11.764;2024-03-23T05:29:24;8.70;1.40
2174;DHT22;1093;51.424;11.764;2024-03-23T05:31:52;8.70;1.40
2174;DHT22;1093;51.424;11.764;2024-03-23T05:34:22;8.80;1.40
2174;DHT22;1093;51.424;11.764;2024-03-23T05:36:47;8.80;1.40
2174;DHT22;1093;51.424;11.764;2024-03-23T05:39:16;8.80;1.40
2174;DHT22;1093;51.424;11.764;2024-03-23T05:41:47;8.80;1.40
2174;DHT22;1093;51.424;11.764;2024-03-23T05:44:14;8.80;1.40
2174;DHT22;1093;51.424;11.764;2024-03-23T05:46:40;8.70;1.40
2174;DHT22;1093;51.424;11.764;2024-03-23T05:49:09;8.80;1.40
2174;DHT22;1093;51.424;11.764;2024-03-23T05:51:35;8.80;1.40
2174;DHT22;1093;51.424;11.764;2024-03-23T05:54:02;8.80;1.40
2174;DHT22;1093;51.424;11.764;2024-03-23T05:56:30;8.70;1.40
2174;DHT22;1093;51.424;11.764;2024-03-23T05:58:57;8.70;1.40
2174;DHT22;1093;51.424;11.764;2024-03-23T06:01:23;8.70;1.40
2174;DHT22;1093;51.424;11.764;2024-03-23T06:03:50;8.60;1.40
2174;DHT22;1093;51.424;11.764;2024-03-23T06:06:18;8.60;1.40
2174;DHT22;1093;51.424;11.764;2024-03-23T06:08:48;8.50;1.40
2174;DHT22;1093;51.424;11.764;2024-03-23T06:11:14;8.50;1.40
2174;DHT22;1093;51.424;11.764;2024-03-23T06:13:41;8.40;1.40
2174;DHT22;1093;51.424;11.764;2024-03-23T06:16:07;8.50;1.40
2174;DHT22;1093;51.424;11.764;2024-03-23T06:18:53;8.50;1.40
2174;DHT22;1093;51.424;11.764;2024-03-23T06:21:29;8.40;1.40
2174;DHT22;1093;51.424;11.764;2024-03-23T06:24:08;8.20;1.40
2174;DHT22;1093;51.424;11.764;2024-03-23T06:26:38;8.10;1.40
2174;DHT22;1093;51.424;11.764;2024-03-23T06:29:04;8.00;1.40
2174;DHT22;1093;51.424;11.764;2024-03-23T06:31:33;8.00;1.40
2174;DHT22;1093;51.424;11.764;2024-03-23T06:34:08;7.90;1.40
2174;DHT22;1093;51.424;11.764;2024-03-23T06:36:53;7.80;1.40
2174;DHT22;1093;51.424;11.764;2024-03-23T06:39:50;7.60;1.40
2174;DHT22;1093;51.424;11.764;2024-03-23T06:42:41;7.50;1.40
2174;DHT22;1093;51.424;11.764;2024-03-23T06:48:32;7.30;1.40
2174;DHT22;1093;51.424;11.764;2024-03-23T06:51:19;7.20;1.40
2174;DHT22;1093;51.424;11.764;2024-03-23T06:54:29;7.10;1.40
2174;DHT22;1093;51.424;11.764;2024-03-23T06:57:06;7.10;1.40
2174;DHT22;1093;51.424;11.764;2024-03-23T06:59:33;7.00;1.40
2174;DHT22;1093;51.424;11.764;2024-03-23T07:02:01;6.90;1.40
2174;DHT22;1093;51.424;11.764;2024-03-23T07:04:27;6.90;1.40
2174;DHT22;1093;51.424;11.764;2024-03-23T07:06:55;6.90;1.40
2174;DHT22;1093;51.424;11.764;2024-03-23T07:09:23;6.80;1.40
2174;DHT22;1093;51.424;11.764;2024-03-23T07:11:53;6.80;1.40
2174;DHT22;1093;51.424;11.764;2024-03-23T07:14:19;6.80;1.40
2174;DHT22;1093;51.424;11.764;2024-03-23T07:16:46;6.90;1.40
2174;DHT22;1093;51.424;11.764;2024-03-23T07:19:12;6.80;1.40
2174;DHT22;1093;51.424;11.764;2024-03-23T07:21:41;6.80;1.40
2174;DHT22;1093;51.424;11.764;2024-03-23T07:24:10;6.70;1.40
2174;DHT22;1093;51.424;11.764;2024-03-23T07:26:38;6.70;1.40
2174;DHT22;1093;51.424;11.764;2024-03-23T07:29:05;6.60;1.40
2174;DHT22;1093;51.424;11.764;2024-03-23T07:31:33;6.50;1.40
2174;DHT22;1093;51.424;11.764;2024-03-23T07:33:59;6.50;1.40
2174;DHT22;1093;51.424;11.764;2024-03-23T07:36:30;6.40;1.40
2174;DHT22;1093;51.424;11.764;2024-03-23T07:38:56;6.40;1.40
2174;DHT22;1093;51.424;11.764;2024-03-23T07:41:23;6.30;1.40
2174;DHT22;1093;51.424;11.764;2024-03-23T07:43:54;6.30;1.40
2174;DHT22;1093;51.424;11.764;2024-03-23T07:46:22;6.30;1.40
2174;DHT22;1093;51.424;11.764;2024-03-23T07:48:48;6.30;1.40
2174;DHT22;1093;51.424;11.764;2024-03-23T07:51:19;6.30;1.40
2174;DHT22;1093;51.424;11.764;2024-03-23T07:53:45;6.20;1.40
2174;DHT22;1093;51.424;11.764;2024-03-23T07:56:14;6.20;1.40
2174;DHT22;1093;51.424;11.764;2024-03-23T07:58:41;6.20;1.40
2174;DHT22;1093;51.424;11.764;2024-03-23T08:01:14;6.20;1.40
2174;DHT22;1093;51.424;11.764;2024-03-23T08:03:40;6.10;1.40
2174;DHT22;1093;51.424;11.764;2024-03-23T08:06:11;6.10;1.40
2174;DHT22;1093;51.424;11.764;2024-03-23T08:08:41;6.10;1.40
2174;DHT22;1093;51.424;11.764;2024-03-23T08:11:08;6.10;1.40
2174;DHT22;1093;51.424;11.764;2024-03-23T08:13:35;6.00;1.40
2174;DHT22;1093;51.424;11.764;2024-03-23T08:16:03;6.00;1.40
2174;DHT22;1093;51.424;11.764;2024-03-23T08:18:31;6.00;1.40
2174;DHT22;1093;51.424;11.764;2024-03-23T08:20:58;6.00;1.40
2174;DHT22;1093;51.424;11.764;2024-03-23T08:23:25;6.00;1.40
2174;DHT22;1093;51.424;11.764;2024-03-23T08:25:52;6.00;1.40
2174;DHT22;1093;51.424;11.764;2024-03-23T08:28:17;6.00;1.40
2174;DHT22;1093;51.424;11.764;2024-03-23T08:30:44;5.90;1.40
2174;DHT22;1093;51.424;11.764;2024-03-23T08:33:10;5.90;1.40
2174;DHT22;1093;51.424;11.764;2024-03-23T08:35:39;6.00;1.40
2174;DHT22;1093;51.424;11.764;2024-03-23T08:38:05;6.00;1.40
2174;DHT22;1093;51.424;11.764;2024-03-23T08:40:32;5.90;1.40
2174;DHT22;1093;51.424;11.764;2024-03-23T08:42:58;5.90;1.40
2174;DHT22;1093;51.424;11.764;2024-03-23T08:45:27;6.00;1.40
2174;DHT22;1093;51.424;11.764;2024-03-23T08:47:53;5.90;1.40
2174;DHT22;1093;51.424;11.764;2024-03-23T08:50:20;6.00;1.40
2174;DHT22;1093;51.424;11.764;2024-03-23T08:52:50;6.00;1.40
2174;DHT22;1093;51.424;11.764;2024-03-23T08:55:18;6.00;1.40
2174;DHT22;1093;51.424;11.764;2024-03-23T08:57:43;6.00;1.40
2174;DHT22;1093;51.424;11.764;2024-03-23T09:00:13;6.00;1.40
2174;DHT22;1093;51.424;11.764;2024-03-23T09:02:45;6.10;1.40
2174;DHT22;1093;51.424;11.764;2024-03-23T09:05:13;6.00;1.40
2174;DHT22;1093;51.424;11.764;2024-03-23T09:07:40;6.10;1.40
2174;DHT22;1093;51.424;11.764;2024-03-23T09:10:11;6.10;1.40
2174;DHT22;1093;51.424;11.764;2024-03-23T09:12:37;6.10;1.40
2174;DHT22;1093;51.424;11.764;2024-03-23T09:15:05;6.10;1.40
2174;DHT22;1093;51.424;11.764;2024-03-23T09:17:31;6.10;1.40
2174;DHT22;1093;51.424;11.764;2024-03-23T09:19:58;6.10;1.40
2174;DHT22;1093;51.424;11.764;2024-03-23T09:22:24;6.10;1.40
2174;DHT22;1093;51.424;11.764;2024-03-23T09:24:51;6.10;1.40
2174;DHT22;1093;51.424;11.764;2024-03-23T09:27:18;6.10;1.40
2174;DHT22;1093;51.424;11.764;2024-03-23T09:29:45;6.10;1.40
2174;DHT22;1093;51.424;11.764;2024-03-23T09:32:11;6.00;1.40
2174;DHT22;1093;51.424;11.764;2024-03-23T09:34:38;6.00;1.40
2174;DHT22;1093;51.424;11.764;2024-03-23T09:37:05;6.00;1.40
2174;DHT22;1093;51.424;11.764;2024-03-23T09:39:32;6.00;1.40
2174;DHT22;1093;51.424;11.764;2024-03-23T09:41:58;6.00;1.40
2174;DHT22;1093;51.424;11.764;2024-03-23T09:44:27;5.90;1.40
2174;DHT22;1093;51.424;11.764;2024-03-23T09:46:55;5.90;1.40
2174;DHT22;1093;51.424;11.764;2024-03-23T09:49:22;5.90;1.40
2174;DHT22;1093;51.424;11.764;2024-03-23T09:51:47;5.90;1.40
2174;DHT22;1093;51.424;11.764;2024-03-23T09:54:14;5.90;1.40
2174;DHT22;1093;51.424;11.764;2024-03-23T09:56:40;5.90;1.40
2174;DHT22;1093;51.424;11.764;2024-03-23T09:59:06;5.90;1.40
2174;DHT22;1093;51.424;11.764;2024-03-23T10:01:34;5.80;1.40
2174;DHT22;1093;51.424;11.764;2024-03-23T10:04:01;5.80;1.40
2174;DHT22;1093;51.424;11.764;2024-03-23T10:06:28;5.80;1.40
2174;DHT22;1093;51.424;11.764;2024-03-23T10:08:54;5.90;1.40
2174;DHT22;1093;51.424;11.764;2024-03-23T10:11:21;5.90;1.40
2174;DHT22;1093;51.424;11.764;2024-03-23T10:13:48;5.90;1.40
2174;DHT22;1093;51.424;11.764;2024-03-23T10:16:23;5.90;1.40
2174;DHT22;1093;51.424;11.764;2024-03-23T10:18:53;6.00;1.40
2174;DHT22;1093;51.424;11.764;2024-03-23T10:21:19;6.00;1.40
2174;DHT22;1093;51.424;11.764;2024-03-23T10:23:47;5.90;1.40
2174;DHT22;1093;51.424;11.764;2024-03-23T10:26:17;5.90;1.40
2174;DHT22;1093;51.424;11.764;2024-03-23T10:28:56;5.90;1.40
2174;DHT22;1093;51.424;11.764;2024-03-23T10:31:25;6.00;1.40
2174;DHT22;1093;51.424;11.764;2024-03-23T10:33:53;6.00;1.40
2174;DHT22;1093;51.424;11.764;2024-03-23T10:36:20;6.00;1.40
2174;DHT22;1093;51.424;11.764;2024-03-23T10:38:47;6.10;1.40
2174;DHT22;1093;51.424;11.764;2024-03-23T10:41:15;6.10;1.40
2174;DHT22;1093;51.424;11.764;2024-03-23T10:43:44;6.10;1.40
2174;DHT22;1093;51.424;11.764;2024-03-23T10:46:10;6.20;1.40
2174;DHT22;1093;51.424;11.764;2024-03-23T10:48:40;6.30;1.40
2174;DHT22;1093;51.424;11.764;2024-03-23T10:51:08;6.20;1.40
2174;DHT22;1093;51.424;11.764;2024-03-23T10:53:37;6.30;1.40
2174;DHT22;1093;51.424;11.764;2024-03-23T10:56:06;6.30;1.40
2174;DHT22;1093;51.424;11.764;2024-03-23T10:58:38;6.30;1.40
2174;DHT22;1093;51.424;11.764;2024-03-23T11:01:04;6.30;1.40
2174;DHT22;1093;51.424;11.764;2024-03-23T11:03:35;6.30;1.40
2174;DHT22;1093;51.424;11.764;2024-03-23T11:06:02;6.40;1.40
2174;DHT22;1093;51.424;11.764;2024-03-23T11:08:37;6.40;1.40
2174;DHT22;1093;51.424;11.764;2024-03-23T11:11:14;6.40;1.40
2174;DHT22;1093;51.424;11.764;2024-03-23T11:13:40;6.50;1.40
2174;DHT22;1093;51.424;11.764;2024-03-23T11:16:16;6.60;1.40
2174;DHT22;1093;51.424;11.764;2024-03-23T11:18:44;6.70;1.40
2174;DHT22;1093;51.424;11.764;2024-03-23T11:21:13;6.80;1.40
2174;DHT22;1093;51.424;11.764;2024-03-23T11:24:14;7.00;1.40
2174;DHT22;1093;51.424;11.764;2024-03-23T11:26:40;7.10;1.40
2174;DHT22;1093;51.424;11.764;2024-03-23T11:29:10;7.10;1.40
2174;DHT22;1093;51.424;11.764;2024-03-23T11:31:36;7.20;1.40
2174;DHT22;1093;51.424;11.764;2024-03-23T11:34:04;7.20;1.40
2174;DHT22;1093;51.424;11.764;2024-03-23T11:36:30;7.30;1.40
2174;DHT22;1093;51.424;11.764;2024-03-23T11:38:58;7.40;1.40
2174;DHT22;1093;51.424;11.764;2024-03-23T11:41:26;7.50;1.40
2174;DHT22;1093;51.424;11.764;2024-03-23T11:44:02;7.70;1.40
2174;DHT22;1093;51.424;11.764;2024-03-23T11:46:39;7.70;1.40
2174;DHT22;1093;51.424;11.764;2024-03-23T11:49:06;7.90;1.40
2174;DHT22;1093;51.424;11.764;2024-03-23T11:51:32;8.10;1.40
2174;DHT22;1093;51.424;11.764;2024-03-23T11:54:07;8.10;1.40
2174;DHT22;1093;51.424;11.764;2024-03-23T11:56:35;8.20;1.40
2174;DHT22;1093;51.424;11.764;2024-03-23T11:59:02;8.10;1.40
2174;DHT22;1093;51.424;11.764;2024-03-23T12:01:27;8.20;1.40
2174;DHT22;1093;51.424;11.764;2024-03-23T12:03:56;8.30;1.40
2174;DHT22;1093;51.424;11.764;2024-03-23T12:06:21;8.30;1.40
2174;DHT22;1093;51.424;11.764;2024-03-23T12:08:51;8.30;1.40
2174;DHT22;1093;51.424;11.764;2024-03-23T12:11:22;8.40;1.40
2174;DHT22;1093;51.424;11.764;2024-03-23T12:13:53;8.30;1.40
2174;DHT22;1093;51.424;11.764;2024-03-23T12:16:25;8.40;1.40
2174;DHT22;1093;51.424;11.764;2024-03-23T12:19:05;8.50;1.40
2174;DHT22;1093;51.424;11.764;2024-03-23T12:21:33;8.60;1.40
2174;DHT22;1093;51.424;11.764;2024-03-23T12:23:59;8.80;1.40
2174;DHT22;1093;51.424;11.764;2024-03-23T12:26:26;8.90;1.40
2174;DHT22;1093;51.424;11.764;2024-03-23T12:28:57;8.90;1.40
2174;DHT22;1093;51.424;11.764;2024-03-23T12:31:25;9.00;1.40
2174;DHT22;1093;51.424;11.764;2024-03-23T12:33:52;9.10;1.40
2174;DHT22;1093;51.424;11.764;2024-03-23T12:36:18;9.20;1.40
2174;DHT22;1093;51.424;11.764;2024-03-23T12:38:45;9.30;1.40
2174;DHT22;1093;51.424;11.764;2024-03-23T12:41:12;9.40;1.40
2174;DHT22;1093;51.424;11.764;2024-03-23T12:43:39;9.60;1.40
2174;DHT22;1093;51.424;11.764;2024-03-23T12:46:06;9.60;1.40
2174;DHT22;1093;51.424;11.764;2024-03-23T12:48:33;9.80;1.40
2174;DHT22;1093;51.424;11.764;2024-03-23T12:51:01;9.80;1.40
2174;DHT22;1093;51.424;11.764;2024-03-23T12:53:28;9.80;1.40
2174;DHT22;1093;51.424;11.764;2024-03-23T12:55:53;9.90;1.40
2174;DHT22;1093;51.424;11.764;2024-03-23T12:58:24;9.80;1.40
2174;DHT22;1093;51.424;11.764;2024-03-23T13:00:49;9.90;1.40
2174;DHT22;1093;51.424;11.764;2024-03-23T13:03:18;9.80;1.40
2174;DHT22;1093;51.424;11.764;2024-03-23T13:05:51;9.80;1.40
2174;DHT22;1093;51.424;11.764;2024-03-23T13:08:18;9.80;1.40
2174;DHT22;1093;51.424;11.764;2024-03-23T13:10:44;9.80;1.40
2174;DHT22;1093;51.424;11.764;2024-03-23T13:13:12;9.60;1.40
2174;DHT22;1093;51.424;11.764;2024-03-23T13:15:55;9.60;1.40
2174;DHT22;1093;51.424;11.764;2024-03-23T13:18:24;9.60;1.40
2174;DHT22;1093;51.424;11.764;2024-03-23T13:20:53;9.50;1.40
2174;DHT22;1093;51.424;11.764;2024-03-23T13:23:21;9.50;1.40
2174;DHT22;1093;51.424;11.764;2024-03-23T13:25:50;9.50;1.40
2174;DHT22;1093;51.424;11.764;2024-03-23T13:28:18;9.60;1.40
2174;DHT22;1093;51.424;11.764;2024-03-23T13:30:51;9.70;1.40
2174;DHT22;1093;51.424;11.764;2024-03-23T13:33:17;9.80;1.40
2174;DHT22;1093;51.424;11.764;2024-03-23T13:35:52;9.90;1.40
2174;DHT22;1093;51.424;11.764;2024-03-23T13:38:18;10.00;1.40
2174;DHT22;1093;51.424;11.764;2024-03-23T13:40:54;10.20;1.40
2174;DHT22;1093;51.424;11.764;2024-03-23T13:43:22;10.10;1.40
2174;DHT22;1093;51.424;11.764;2024-03-23T13:45:52;10.10;1.40
2174;DHT22;1093;51.424;11.764;2024-03-23T13:48:24;9.90;1.40
2174;DHT22;1093;51.424;11.764;2024-03-23T13:51:05;9.70;1.40
2174;DHT22;1093;51.424;11.764;2024-03-23T13:53:39;9.60;1.40
2174;DHT22;1093;51.424;11.764;2024-03-23T13:56:12;9.30;1.40
2174;DHT22;1093;51.424;11.764;2024-03-23T13:58:53;9.20;1.40
2174;DHT22;1093;51.424;11.764;2024-03-23T14:01:21;8.90;1.40
2174;DHT22;1093;51.424;11.764;2024-03-23T14:04:12;8.70;1.40
2174;DHT22;1093;51.424;11.764;2024-03-23T14:06:57;8.60;1.40
2174;DHT22;1093;51.424;11.764;2024-03-23T14:09:38;8.50;1.40
2174;DHT22;1093;51.424;11.764;2024-03-23T14:12:38;8.30;1.40
2174;DHT22;1093;51.424;11.764;2024-03-23T14:15:06;8.20;1.40
2174;DHT22;1093;51.424;11.764;2024-03-23T14:17:34;8.20;1.40
2174;DHT22;1093;51.424;11.764;2024-03-23T14:20:09;8.20;1.40
2174;DHT22;1093;51.424;11.764;2024-03-23T14:22:54;8.10;1.40
2174;DHT22;1093;51.424;11.764;2024-03-23T14:25:20;8.10;1.40
2174;DHT22;1093;51.424;11.764;2024-03-23T14:27:49;7.80;1.40
2174;DHT22;1093;51.424;11.764;2024-03-23T14:30:42;7.60;1.40
2174;DHT22;1093;51.424;11.764;2024-03-23T14:33:11;7.60;1.40
2174;DHT22;1093;51.424;11.764;2024-03-23T14:35:52;7.60;1.40
2174;DHT22;1093;51.424;11.764;2024-03-23T14:38:26;7.60;1.40
2174;DHT22;1093;51.424;11.764;2024-03-23T14:40:53;7.70;1.40
2174;DHT22;1093;51.424;11.764;2024-03-23T14:43:37;7.70;1.40
2174;DHT22;1093;51.424;11.764;2024-03-23T14:46:10;7.70;1.40
2174;DHT22;1093;51.424;11.764;2024-03-23T14:48:44;7.70;1.40
2174;DHT22;1093;51.424;11.764;2024-03-23T14:51:14;7.70;1.40
2174;DHT22;1093;51.424;11.764;2024-03-23T14:53:55;7.80;1.40
2174;DHT22;1093;51.424;11.764;2024-03-23T14:56:28;7.80;1.40
2174;DHT22;1093;51.424;11.764;2024-03-23T14:58:55;7.90;1.40
2174;DHT22;1093;51.424;11.764;2024-03-23T15:01:23;7.90;1.40
2174;DHT22;1093;51.424;11.764;2024-03-23T15:03:55;7.90;1.40
2174;DHT22;1093;51.424;11.764;2024-03-23T15:06:23;8.00;1.40
2174;DHT22;1093;51.424;11.764;2024-03-23T15:08:52;8.00;1.40
2174;DHT22;1093;51.424;11.764;2024-03-23T15:16:55;8.30;1.40
2174;DHT22;1093;51.424;11.764;2024-03-23T15:19:22;8.20;1.40
2174;DHT22;1093;51.424;11.764;2024-03-23T15:21:47;8.20;1.40
2174;DHT22;1093;51.424;11.764;2024-03-23T15:24:15;8.30;1.40
2174;DHT22;1093;51.424;11.764;2024-03-23T15:26:41;8.20;1.40
2174;DHT22;1093;51.424;11.764;2024-03-23T15:29:11;8.30;1.40
2174;DHT22;1093;51.424;11.764;2024-03-23T15:31:38;8.40;1.40
2174;DHT22;1093;51.424;11.764;2024-03-23T15:34:05;8.40;1.40
2174;DHT22;1093;51.424;11.764;2024-03-23T15:36:38;8.50;1.40
2174;DHT22;1093;51.424;11.764;2024-03-23T15:39:09;8.50;1.40
2174;DHT22;1093;51.424;11.764;2024-03-23T15:41:37;8.50;1.40
2174;DHT22;1093;51.424;11.764;2024-03-23T15:44:04;8.50;1.40
2174;DHT22;1093;51.424;11.764;2024-03-23T15:46:31;8.50;1.40
2174;DHT22;1093;51.424;11.764;2024-03-23T15:48:58;8.50;1.40
2174;DHT22;1093;51.424;11.764;2024-03-23T15:51:24;8.50;1.40
2174;DHT22;1093;51.424;11.764;2024-03-23T15:53:56;8.50;1.40
2174;DHT22;1093;51.424;11.764;2024-03-23T15:56:22;8.50;1.40
2174;DHT22;1093;51.424;11.764;2024-03-23T15:58:51;8.50;1.40
2174;DHT22;1093;51.424;11.764;2024-03-23T16:01:16;8.60;1.40
2174;DHT22;1093;51.424;11.764;2024-03-23T16:03:43;8.60;1.40
2174;DHT22;1093;51.424;11.764;2024-03-23T16:06:11;8.60;1.40
2174;DHT22;1093;51.424;11.764;2024-03-23T16:08:38;8.60;1.40
2174;DHT22;1093;51.424;11.764;2024-03-23T16:11:06;8.50;1.40
2174;DHT22;1093;51.424;11.764;2024-03-23T16:13:35;8.40;1.40
2174;DHT22;1093;51.424;11.764;2024-03-23T16:16:13;8.40;1.40
2174;DHT22;1093;51.424;11.764;2024-03-23T16:18:41;8.30;1.40
2174;DHT22;1093;51.424;11.764;2024-03-23T16:21:09;8.30;1.40
2174;DHT22;1093;51.424;11.764;2024-03-23T16:23:37;8.30;1.40
2174;DHT22;1093;51.424;11.764;2024-03-23T16:26:05;8.30;1.40
2174;DHT22;1093;51.424;11.764;2024-03-23T16:28:38;8.20;1.40
2174;DHT22;1093;51.424;11.764;2024-03-23T17:17:04;7.00;1.40
2174;DHT22;1093;51.424;11.764;2024-03-23T17:20:04;7.00;1.40
2174;DHT22;1093;51.424;11.764;2024-03-23T17:22:43;6.80;1.40
2174;DHT22;1093;51.424;11.764;2024-03-23T17:25:12;6.90;1.40
2174;DHT22;1093;51.424;11.764;2024-03-23T17:27:46;6.80;1.40
2174;DHT22;1093;51.424;11.764;2024-03-23T17:30:22;6.70;1.40
2174;DHT22;1093;51.424;11.764;2024-03-23T17:33:22;6.70;1.40
2174;DHT22;1093;51.424;11.764;2024-03-23T17:35:51;6.60;1.40
2174;DHT22;1093;51.424;11.764;2024-03-23T17:38:18;6.60;1.40
2174;DHT22;1093;51.424;11.764;2024-03-23T17:40:55;6.50;1.40
2174;DHT22;1093;51.424;11.764;2024-03-23T17:43:28;6.50;1.40
2174;DHT22;1093;51.424;11.764;2024-03-23T17:45:59;6.40;1.40
2174;DHT22;1093;51.424;11.764;2024-03-23T17:48:31;6.40;1.40
2174;DHT22;1093;51.424;11.764;2024-03-23T17:51:04;6.40;1.40
2174;DHT22;1093;51.424;11.764;2024-03-23T17:53:46;6.30;1.40
2174;DHT22;1093;51.424;11.764;2024-03-23T17:56:24;6.30;1.40
2174;DHT22;1093;51.424;11.764;2024-03-23T17:59:14;6.20;1.40
2174;DHT22;1093;51.424;11.764;2024-03-23T18:01:43;6.20;1.40
2174;DHT22;1093;51.424;11.764;2024-03-23T18:04:19;6.10;1.40
2174;DHT22;1093;51.424;11.764;2024-03-23T18:06:55;6.00;1.40
2174;DHT22;1093;51.424;11.764;2024-03-23T18:09:22;6.10;1.40
2174;DHT22;1093;51.424;11.764;2024-03-23T18:11:52;6.00;1.40
2174;DHT22;1093;51.424;11.764;2024-03-23T18:14:21;6.00;1.40
2174;DHT22;1093;51.424;11.764;2024-03-23T18:17:02;5.90;1.40